Aviation Digital Data Service (ADDS)

Output produced by METARs form (0111 UTC 24 June 2018)
found at http://www.aviationweather.gov/adds/metars/
 
METAR text: VGHS 240100Z 13006KT 3500 HZ SCT012 BKN100 28/26 Q1002 TEMPO RA
Conditions at: VGHS (DHAKA , BD) observed 0100 UTC 24 June 2018
Temperature: 28.0°C (82°F)
Dewpoint: 26.0°C (79°F) [RH = 89%]
Pressure (altimeter): 29.59 inches Hg (1002.0 mb)
Winds: from the SE (130 degrees) at 7 MPH (6 knots; 3.1 m/s)
Visibility: 2.17 miles (3.49 km)
Ceiling: 10000 feet AGL
Clouds: scattered clouds at 1200 feet AGL
broken clouds at 10000 feet AGL
Weather: HZ  (haze)

METAR text: VGHS 240030Z 14008KT 3500 HZ SCT012 BKN100 27/25 Q1002 NOSIG
Conditions at: VGHS (DHAKA , BD) observed 0030 UTC 24 June 2018
Temperature: 27.0°C (81°F)
Dewpoint: 25.0°C (77°F) [RH = 89%]
Pressure (altimeter): 29.59 inches Hg (1002.0 mb)
Winds: from the SE (140 degrees) at 9 MPH (8 knots; 4.2 m/s)
Visibility: 2.17 miles (3.49 km)
Ceiling: 10000 feet AGL
Clouds: scattered clouds at 1200 feet AGL
broken clouds at 10000 feet AGL
Weather: HZ  (haze)

METAR text: VGHS 240000Z 14006KT 3500 HZ SCT012 BKN100 27/25 Q1001 NOSIG
Conditions at: VGHS (DHAKA , BD) observed 0000 UTC 24 June 2018
Temperature: 27.0°C (81°F)
Dewpoint: 25.0°C (77°F) [RH = 89%]
Pressure (altimeter): 29.56 inches Hg (1001.0 mb)
Winds: from the SE (140 degrees) at 7 MPH (6 knots; 3.1 m/s)
Visibility: 2.17 miles (3.49 km)
Ceiling: 10000 feet AGL
Clouds: scattered clouds at 1200 feet AGL
broken clouds at 10000 feet AGL
Weather: HZ  (haze)

METAR text: VGHS 232330Z 14006KT 3500 HZ SCT012 BKN100 27/25 Q1001 TEMPO RA
Conditions at: VGHS (DHAKA , BD) observed 2330 UTC 23 June 2018
Temperature: 27.0°C (81°F)
Dewpoint: 25.0°C (77°F) [RH = 89%]
Pressure (altimeter): 29.56 inches Hg (1001.0 mb)
Winds: from the SE (140 degrees) at 7 MPH (6 knots; 3.1 m/s)
Visibility: 2.17 miles (3.49 km)
Ceiling: 10000 feet AGL
Clouds: scattered clouds at 1200 feet AGL
broken clouds at 10000 feet AGL
Weather: HZ  (haze)

METAR text: VGHS 232300Z 15007KT 3500 HZ SCT012 BKN100 27/25 Q1000 NOSIG
Conditions at: VGHS (DHAKA , BD) observed 2300 UTC 23 June 2018
Temperature: 27.0°C (81°F)
Dewpoint: 25.0°C (77°F) [RH = 89%]
Pressure (altimeter): 29.53 inches Hg (1000.0 mb)
Winds: from the SSE (150 degrees) at 8 MPH (7 knots; 3.6 m/s)
Visibility: 2.17 miles (3.49 km)
Ceiling: 10000 feet AGL
Clouds: scattered clouds at 1200 feet AGL
broken clouds at 10000 feet AGL
Weather: HZ  (haze)

METAR text: VGHS 232230Z 13008KT 3500 HZ FEW015 SCT100 27/25 Q1000 NOSIG
Conditions at: VGHS (DHAKA , BD) observed 2230 UTC 23 June 2018
Temperature: 27.0°C (81°F)
Dewpoint: 25.0°C (77°F) [RH = 89%]
Pressure (altimeter): 29.53 inches Hg (1000.0 mb)
Winds: from the SE (130 degrees) at 9 MPH (8 knots; 4.2 m/s)
Visibility: 2.17 miles (3.49 km)
Ceiling: at least 12,000 feet AGL
Clouds: few clouds at 1500 feet AGL
scattered clouds at 10000 feet AGL
Weather: HZ  (haze)

METAR text: VGHS 232200Z 14007KT 3500 HZ FEW015 BKN100 27/25 Q1000 NOSIG
Conditions at: VGHS (DHAKA , BD) observed 2200 UTC 23 June 2018
Temperature: 27.0°C (81°F)
Dewpoint: 25.0°C (77°F) [RH = 89%]
Pressure (altimeter): 29.53 inches Hg (1000.0 mb)
Winds: from the SE (140 degrees) at 8 MPH (7 knots; 3.6 m/s)
Visibility: 2.17 miles (3.49 km)
Ceiling: 10000 feet AGL
Clouds: few clouds at 1500 feet AGL
broken clouds at 10000 feet AGL
Weather: HZ  (haze)

METAR text: VGHS 232130Z 14006KT 3500 HZ SCT012 BKN100 28/25 Q1001 NOSIG
Conditions at: VGHS (DHAKA , BD) observed 2130 UTC 23 June 2018
Temperature: 28.0°C (82°F)
Dewpoint: 25.0°C (77°F) [RH = 84%]
Pressure (altimeter): 29.56 inches Hg (1001.0 mb)
Winds: from the SE (140 degrees) at 7 MPH (6 knots; 3.1 m/s)
Visibility: 2.17 miles (3.49 km)
Ceiling: 10000 feet AGL
Clouds: scattered clouds at 1200 feet AGL
broken clouds at 10000 feet AGL
Weather: HZ  (haze)

METAR text: VGHS 232100Z 15007KT 3500 HZ SCT012 BKN100 28/25 Q1001 NOSIG
Conditions at: VGHS (DHAKA , BD) observed 2100 UTC 23 June 2018
Temperature: 28.0°C (82°F)
Dewpoint: 25.0°C (77°F) [RH = 84%]
Pressure (altimeter): 29.56 inches Hg (1001.0 mb)
Winds: from the SSE (150 degrees) at 8 MPH (7 knots; 3.6 m/s)
Visibility: 2.17 miles (3.49 km)
Ceiling: 10000 feet AGL
Clouds: scattered clouds at 1200 feet AGL
broken clouds at 10000 feet AGL
Weather: HZ  (haze)

METAR text: VGHS 232030Z 15007KT 3500 HZ SCT012 BKN100 28/25 Q1001 NOSIG
Conditions at: VGHS (DHAKA , BD) observed 2030 UTC 23 June 2018
Temperature: 28.0°C (82°F)
Dewpoint: 25.0°C (77°F) [RH = 84%]
Pressure (altimeter): 29.56 inches Hg (1001.0 mb)
Winds: from the SSE (150 degrees) at 8 MPH (7 knots; 3.6 m/s)
Visibility: 2.17 miles (3.49 km)
Ceiling: 10000 feet AGL
Clouds: scattered clouds at 1200 feet AGL
broken clouds at 10000 feet AGL
Weather: HZ  (haze)

METAR text: VGHS 232000Z 16007KT 3500 HZ SCT012 BKN100 28/25 Q1001 NOSIG
Conditions at: VGHS (DHAKA , BD) observed 2000 UTC 23 June 2018
Temperature: 28.0°C (82°F)
Dewpoint: 25.0°C (77°F) [RH = 84%]
Pressure (altimeter): 29.56 inches Hg (1001.0 mb)
Winds: from the SSE (160 degrees) at 8 MPH (7 knots; 3.6 m/s)
Visibility: 2.17 miles (3.49 km)
Ceiling: 10000 feet AGL
Clouds: scattered clouds at 1200 feet AGL
broken clouds at 10000 feet AGL
Weather: HZ  (haze)

METAR text: VGHS 231930Z 14007KT 3500 HZ SCT012 BKN100 28/24 Q1002 NOSIG
Conditions at: VGHS (DHAKA , BD) observed 1930 UTC 23 June 2018
Temperature: 28.0°C (82°F)
Dewpoint: 24.0°C (75°F) [RH = 79%]
Pressure (altimeter): 29.59 inches Hg (1002.0 mb)
Winds: from the SE (140 degrees) at 8 MPH (7 knots; 3.6 m/s)
Visibility: 2.17 miles (3.49 km)
Ceiling: 10000 feet AGL
Clouds: scattered clouds at 1200 feet AGL
broken clouds at 10000 feet AGL
Weather: HZ  (haze)

METAR text: VGHS 231900Z 15007KT 3500 HZ SCT012 BKN100 28/24 Q1002 NOSIG
Conditions at: VGHS (DHAKA , BD) observed 1900 UTC 23 June 2018
Temperature: 28.0°C (82°F)
Dewpoint: 24.0°C (75°F) [RH = 79%]
Pressure (altimeter): 29.59 inches Hg (1002.0 mb)
Winds: from the SSE (150 degrees) at 8 MPH (7 knots; 3.6 m/s)
Visibility: 2.17 miles (3.49 km)
Ceiling: 10000 feet AGL
Clouds: scattered clouds at 1200 feet AGL
broken clouds at 10000 feet AGL
Weather: HZ  (haze)

METAR text: VGHS 231830Z 16006KT 3500 HZ SCT012 BKN100 28/24 Q1002 NOSIG
Conditions at: VGHS (DHAKA , BD) observed 1830 UTC 23 June 2018
Temperature: 28.0°C (82°F)
Dewpoint: 24.0°C (75°F) [RH = 79%]
Pressure (altimeter): 29.59 inches Hg (1002.0 mb)
Winds: from the SSE (160 degrees) at 7 MPH (6 knots; 3.1 m/s)
Visibility: 2.17 miles (3.49 km)
Ceiling: 10000 feet AGL
Clouds: scattered clouds at 1200 feet AGL
broken clouds at 10000 feet AGL
Weather: HZ  (haze)

METAR text: VGHS 231800Z 17006KT 3500 HZ SCT012 BKN100 28/24 Q1002 NOSIG
Conditions at: VGHS (DHAKA , BD) observed 1800 UTC 23 June 2018
Temperature: 28.0°C (82°F)
Dewpoint: 24.0°C (75°F) [RH = 79%]
Pressure (altimeter): 29.59 inches Hg (1002.0 mb)
Winds: from the S (170 degrees) at 7 MPH (6 knots; 3.1 m/s)
Visibility: 2.17 miles (3.49 km)
Ceiling: 10000 feet AGL
Clouds: scattered clouds at 1200 feet AGL
broken clouds at 10000 feet AGL
Weather: HZ  (haze)

METAR text: VGHS 231730Z 16006KT 3500 HZ SCT012 BKN100 28/24 Q1002 NOSIG
Conditions at: VGHS (DHAKA , BD) observed 1730 UTC 23 June 2018
Temperature: 28.0°C (82°F)
Dewpoint: 24.0°C (75°F) [RH = 79%]
Pressure (altimeter): 29.59 inches Hg (1002.0 mb)
Winds: from the SSE (160 degrees) at 7 MPH (6 knots; 3.1 m/s)
Visibility: 2.17 miles (3.49 km)
Ceiling: 10000 feet AGL
Clouds: scattered clouds at 1200 feet AGL
broken clouds at 10000 feet AGL
Weather: HZ  (haze)

METAR text: VGHS 231700Z 16007KT 3500 HZ SCT012 BKN100 28/24 Q1002 NOSIG
Conditions at: VGHS (DHAKA , BD) observed 1700 UTC 23 June 2018
Temperature: 28.0°C (82°F)
Dewpoint: 24.0°C (75°F) [RH = 79%]
Pressure (altimeter): 29.59 inches Hg (1002.0 mb)
Winds: from the SSE (160 degrees) at 8 MPH (7 knots; 3.6 m/s)
Visibility: 2.17 miles (3.49 km)
Ceiling: 10000 feet AGL
Clouds: scattered clouds at 1200 feet AGL
broken clouds at 10000 feet AGL
Weather: HZ  (haze)

METAR text: VGHS 231630Z 16007KT 3500 HZ SCT012 BKN100 28/23 Q1003 NOSIG
Conditions at: VGHS (DHAKA , BD) observed 1630 UTC 23 June 2018
Temperature: 28.0°C (82°F)
Dewpoint: 23.0°C (73°F) [RH = 74%]
Pressure (altimeter): 29.62 inches Hg (1003.0 mb)
Winds: from the SSE (160 degrees) at 8 MPH (7 knots; 3.6 m/s)
Visibility: 2.17 miles (3.49 km)
Ceiling: 10000 feet AGL
Clouds: scattered clouds at 1200 feet AGL
broken clouds at 10000 feet AGL
Weather: HZ  (haze)

METAR text: VGHS 231600Z 16008KT 3500 HZ SCT012 BKN100 28/23 Q1003 NOSIG
Conditions at: VGHS (DHAKA , BD) observed 1600 UTC 23 June 2018
Temperature: 28.0°C (82°F)
Dewpoint: 23.0°C (73°F) [RH = 74%]
Pressure (altimeter): 29.62 inches Hg (1003.0 mb)
Winds: from the SSE (160 degrees) at 9 MPH (8 knots; 4.2 m/s)
Visibility: 2.17 miles (3.49 km)
Ceiling: 10000 feet AGL
Clouds: scattered clouds at 1200 feet AGL
broken clouds at 10000 feet AGL
Weather: HZ  (haze)

METAR text: VGHS 231530Z 18008KT 3500 HZ SCT012 BKN100 28/23 Q1002 NOSIG
Conditions at: VGHS (DHAKA , BD) observed 1530 UTC 23 June 2018
Temperature: 28.0°C (82°F)
Dewpoint: 23.0°C (73°F) [RH = 74%]
Pressure (altimeter): 29.59 inches Hg (1002.0 mb)
Winds: from the S (180 degrees) at 9 MPH (8 knots; 4.2 m/s)
Visibility: 2.17 miles (3.49 km)
Ceiling: 10000 feet AGL
Clouds: scattered clouds at 1200 feet AGL
broken clouds at 10000 feet AGL
Weather: HZ  (haze)

METAR text: VGHS 231500Z 16009KT 3500 HZ SCT012 BKN100 28/23 Q1002 NOSIG
Conditions at: VGHS (DHAKA , BD) observed 1500 UTC 23 June 2018
Temperature: 28.0°C (82°F)
Dewpoint: 23.0°C (73°F) [RH = 74%]
Pressure (altimeter): 29.59 inches Hg (1002.0 mb)
Winds: from the SSE (160 degrees) at 10 MPH (9 knots; 4.7 m/s)
Visibility: 2.17 miles (3.49 km)
Ceiling: 10000 feet AGL
Clouds: scattered clouds at 1200 feet AGL
broken clouds at 10000 feet AGL
Weather: HZ  (haze)

METAR text: VGHS 231430Z 15008KT 3500 HZ SCT012 BKN100 28/23 Q1002 NOSIG
Conditions at: VGHS (DHAKA , BD) observed 1430 UTC 23 June 2018
Temperature: 28.0°C (82°F)
Dewpoint: 23.0°C (73°F) [RH = 74%]
Pressure (altimeter): 29.59 inches Hg (1002.0 mb)
Winds: from the SSE (150 degrees) at 9 MPH (8 knots; 4.2 m/s)
Visibility: 2.17 miles (3.49 km)
Ceiling: 10000 feet AGL
Clouds: scattered clouds at 1200 feet AGL
broken clouds at 10000 feet AGL
Weather: HZ  (haze)

METAR text: VGHS 231400Z 17006KT 3500 HZ SCT012 BKN100 28/23 Q1001 NOSIG
Conditions at: VGHS (DHAKA , BD) observed 1400 UTC 23 June 2018
Temperature: 28.0°C (82°F)
Dewpoint: 23.0°C (73°F) [RH = 74%]
Pressure (altimeter): 29.56 inches Hg (1001.0 mb)
Winds: from the S (170 degrees) at 7 MPH (6 knots; 3.1 m/s)
Visibility: 2.17 miles (3.49 km)
Ceiling: 10000 feet AGL
Clouds: scattered clouds at 1200 feet AGL
broken clouds at 10000 feet AGL
Weather: HZ  (haze)

METAR text: VGHS 231330Z 18005KT 3500 HZ SCT012 BKN100 29/23 Q1001 NOSIG
Conditions at: VGHS (DHAKA , BD) observed 1330 UTC 23 June 2018
Temperature: 29.0°C (84°F)
Dewpoint: 23.0°C (73°F) [RH = 70%]
Pressure (altimeter): 29.56 inches Hg (1001.0 mb)
Winds: from the S (180 degrees) at 6 MPH (5 knots; 2.6 m/s)
Visibility: 2.17 miles (3.49 km)
Ceiling: 10000 feet AGL
Clouds: scattered clouds at 1200 feet AGL
broken clouds at 10000 feet AGL
Weather: HZ  (haze)

METAR text: VGHS 231300Z 17004KT 3500 HZ SCT012 BKN100 29/23 Q1001 NOSIG
Conditions at: VGHS (DHAKA , BD) observed 1300 UTC 23 June 2018
Temperature: 29.0°C (84°F)
Dewpoint: 23.0°C (73°F) [RH = 70%]
Pressure (altimeter): 29.56 inches Hg (1001.0 mb)
Winds: from the S (170 degrees) at 5 MPH (4 knots; 2.1 m/s)
Visibility: 2.17 miles (3.49 km)
Ceiling: 10000 feet AGL
Clouds: scattered clouds at 1200 feet AGL
broken clouds at 10000 feet AGL
Weather: HZ  (haze)

METAR text: VGHS 231230Z 16005KT 3500 HZ SCT012 BKN100 29/23 Q1000 NOSIG
Conditions at: VGHS (DHAKA , BD) observed 1230 UTC 23 June 2018
Temperature: 29.0°C (84°F)
Dewpoint: 23.0°C (73°F) [RH = 70%]
Pressure (altimeter): 29.53 inches Hg (1000.0 mb)
Winds: from the SSE (160 degrees) at 6 MPH (5 knots; 2.6 m/s)
Visibility: 2.17 miles (3.49 km)
Ceiling: 10000 feet AGL
Clouds: scattered clouds at 1200 feet AGL
broken clouds at 10000 feet AGL
Weather: HZ  (haze)

METAR text: VGHS 231200Z 18006KT 3500 HZ SCT012 BKN100 30/24 Q1000 NOSIG
Conditions at: VGHS (DHAKA , BD) observed 1200 UTC 23 June 2018
Temperature: 30.0°C (86°F)
Dewpoint: 24.0°C (75°F) [RH = 70%]
Pressure (altimeter): 29.53 inches Hg (1000.0 mb)
Winds: from the S (180 degrees) at 7 MPH (6 knots; 3.1 m/s)
Visibility: 2.17 miles (3.49 km)
Ceiling: 10000 feet AGL
Clouds: scattered clouds at 1200 feet AGL
broken clouds at 10000 feet AGL
Weather: HZ  (haze)

METAR text: VGHS 231130Z 19008KT 3500 HZ SCT012 BKN100 30/25 Q1000 NOSIG
Conditions at: VGHS (DHAKA , BD) observed 1130 UTC 23 June 2018
Temperature: 30.0°C (86°F)
Dewpoint: 25.0°C (77°F) [RH = 75%]
Pressure (altimeter): 29.53 inches Hg (1000.0 mb)
Winds: from the S (190 degrees) at 9 MPH (8 knots; 4.2 m/s)
Visibility: 2.17 miles (3.49 km)
Ceiling: 10000 feet AGL
Clouds: scattered clouds at 1200 feet AGL
broken clouds at 10000 feet AGL
Weather: HZ  (haze)

METAR text: VGHS 231100Z 16006KT 3500 HZ SCT012 BKN100 30/25 Q1000 NOSIG
Conditions at: VGHS (DHAKA , BD) observed 1100 UTC 23 June 2018
Temperature: 30.0°C (86°F)
Dewpoint: 25.0°C (77°F) [RH = 75%]
Pressure (altimeter): 29.53 inches Hg (1000.0 mb)
Winds: from the SSE (160 degrees) at 7 MPH (6 knots; 3.1 m/s)
Visibility: 2.17 miles (3.49 km)
Ceiling: 10000 feet AGL
Clouds: scattered clouds at 1200 feet AGL
broken clouds at 10000 feet AGL
Weather: HZ  (haze)

METAR text: VGHS 231030Z 19007KT 3500 HZ BKN010 BKN100 30/26 Q1000 TEMPO RA
Conditions at: VGHS (DHAKA , BD) observed 1030 UTC 23 June 2018
Temperature: 30.0°C (86°F)
Dewpoint: 26.0°C (79°F) [RH = 79%]
Pressure (altimeter): 29.53 inches Hg (1000.0 mb)
Winds: from the S (190 degrees) at 8 MPH (7 knots; 3.6 m/s)
Visibility: 2.17 miles (3.49 km)
Ceiling: 1000 feet AGL
Clouds: broken clouds at 1000 feet AGL
broken clouds at 10000 feet AGL
Weather: HZ  (haze)

METAR text: VGHS 231000Z 16008KT 3500 HZ BKN010 FEW025CB BKN100 30/26 Q1000 TEMPO TSRA
Conditions at: VGHS (DHAKA , BD) observed 1000 UTC 23 June 2018
Temperature: 30.0°C (86°F)
Dewpoint: 26.0°C (79°F) [RH = 79%]
Pressure (altimeter): 29.53 inches Hg (1000.0 mb)
Winds: from the SSE (160 degrees) at 9 MPH (8 knots; 4.2 m/s)
Visibility: 2.17 miles (3.49 km)
Ceiling: 1000 feet AGL
Clouds: broken clouds at 1000 feet AGL
few clouds at 2500 feet AGL
broken clouds at 10000 feet AGL
Weather: HZ  (haze)

METAR text: VGHS 230930Z 17009KT 3500 HZ BKN010 FEW025CB BKN100 29/26 Q1001 TEMPO TSRA
Conditions at: VGHS (DHAKA , BD) observed 0930 UTC 23 June 2018
Temperature: 29.0°C (84°F)
Dewpoint: 26.0°C (79°F) [RH = 84%]
Pressure (altimeter): 29.56 inches Hg (1001.0 mb)
Winds: from the S (170 degrees) at 10 MPH (9 knots; 4.7 m/s)
Visibility: 2.17 miles (3.49 km)
Ceiling: 1000 feet AGL
Clouds: broken clouds at 1000 feet AGL
few clouds at 2500 feet AGL
broken clouds at 10000 feet AGL
Weather: HZ  (haze)

METAR text: VGHS 230900Z 15006KT 2800 TS BKN010 FEW025CB BKN100 28/26 Q1001 TEMPO TSRA
Conditions at: VGHS (DHAKA , BD) observed 0900 UTC 23 June 2018
Temperature: 28.0°C (82°F)
Dewpoint: 26.0°C (79°F) [RH = 89%]
Pressure (altimeter): 29.56 inches Hg (1001.0 mb)
Winds: from the SSE (150 degrees) at 7 MPH (6 knots; 3.1 m/s)
Visibility: 1.74 miles (2.80 km)
Ceiling: 1000 feet AGL
Clouds: broken clouds at 1000 feet AGL
few clouds at 2500 feet AGL
broken clouds at 10000 feet AGL
Weather: TS  (thunderstorm)

METAR text: VGHS 230830Z 13006KT 2800 TSRA BKN009 FEW025CB OVC090 27/26 Q1002 TEMPO +TSRA
Conditions at: VGHS (DHAKA , BD) observed 0830 UTC 23 June 2018
Temperature: 27.0°C (81°F)
Dewpoint: 26.0°C (79°F) [RH = 94%]
Pressure (altimeter): 29.59 inches Hg (1002.0 mb)
Winds: from the SE (130 degrees) at 7 MPH (6 knots; 3.1 m/s)
Visibility: 1.74 miles (2.80 km)
Ceiling: 900 feet AGL
Clouds: broken clouds at 900 feet AGL
few clouds at 2500 feet AGL
overcast cloud deck at 9000 feet AGL
Weather: TSRA  (rain associated with thunderstorm(s))

METAR text: VGHS 230800Z 14006KT 2800 TSRA BKN009 FEW025CB OVC090 26/25 Q1002 TEMPO +TSRA
Conditions at: VGHS (DHAKA , BD) observed 0800 UTC 23 June 2018
Temperature: 26.0°C (79°F)
Dewpoint: 25.0°C (77°F) [RH = 94%]
Pressure (altimeter): 29.59 inches Hg (1002.0 mb)
Winds: from the SE (140 degrees) at 7 MPH (6 knots; 3.1 m/s)
Visibility: 1.74 miles (2.80 km)
Ceiling: 900 feet AGL
Clouds: broken clouds at 900 feet AGL
few clouds at 2500 feet AGL
overcast cloud deck at 9000 feet AGL
Weather: TSRA  (rain associated with thunderstorm(s))

METAR text: VGHS 230730Z 13006KT 2500 TSRA BKN009 FEW025CB OVC090 26/25 Q1002 TEMPO +TSRA
Conditions at: VGHS (DHAKA , BD) observed 0730 UTC 23 June 2018
Temperature: 26.0°C (79°F)
Dewpoint: 25.0°C (77°F) [RH = 94%]
Pressure (altimeter): 29.59 inches Hg (1002.0 mb)
Winds: from the SE (130 degrees) at 7 MPH (6 knots; 3.1 m/s)
Visibility: 1.55 miles (2.49 km)
Ceiling: 900 feet AGL
Clouds: broken clouds at 900 feet AGL
few clouds at 2500 feet AGL
overcast cloud deck at 9000 feet AGL
Weather: TSRA  (rain associated with thunderstorm(s))

METAR text: VGHS 230700Z 14005KT 2000 TSRA BKN009 FEW025CB OVC090 26/25 Q1003 TEMPO +TSRA
Conditions at: VGHS (DHAKA , BD) observed 0700 UTC 23 June 2018
Temperature: 26.0°C (79°F)
Dewpoint: 25.0°C (77°F) [RH = 94%]
Pressure (altimeter): 29.62 inches Hg (1003.0 mb)
Winds: from the SE (140 degrees) at 6 MPH (5 knots; 2.6 m/s)
Visibility: 1.24 miles (2.00 km)
Ceiling: 900 feet AGL
Clouds: broken clouds at 900 feet AGL
few clouds at 2500 feet AGL
overcast cloud deck at 9000 feet AGL
Weather: TSRA  (rain associated with thunderstorm(s))

METAR text: VGHS 230630Z 13007KT 2000 TSRA BKN090 FEW025CB OVC090 26/25 Q1003 TEMPO +TSRA
Conditions at: VGHS (DHAKA , BD) observed 0630 UTC 23 June 2018
Temperature: 26.0°C (79°F)
Dewpoint: 25.0°C (77°F) [RH = 94%]
Pressure (altimeter): 29.62 inches Hg (1003.0 mb)
Winds: from the SE (130 degrees) at 8 MPH (7 knots; 3.6 m/s)
Visibility: 1.24 miles (2.00 km)
Ceiling: 9000 feet AGL
Clouds: broken clouds at 9000 feet AGL
few clouds at 2500 feet AGL
overcast cloud deck at 9000 feet AGL
Weather: TSRA  (rain associated with thunderstorm(s))

METAR text: VGHS 230600Z 16007KT 2000 TSRA BKN090 FEW025CB OVC090 26/25 Q1003 TEMPO +TSRA
Conditions at: VGHS (DHAKA , BD) observed 0600 UTC 23 June 2018
Temperature: 26.0°C (79°F)
Dewpoint: 25.0°C (77°F) [RH = 94%]
Pressure (altimeter): 29.62 inches Hg (1003.0 mb)
Winds: from the SSE (160 degrees) at 8 MPH (7 knots; 3.6 m/s)
Visibility: 1.24 miles (2.00 km)
Ceiling: 9000 feet AGL
Clouds: broken clouds at 9000 feet AGL
few clouds at 2500 feet AGL
overcast cloud deck at 9000 feet AGL
Weather: TSRA  (rain associated with thunderstorm(s))

METAR text: VGHS 230530Z 09004KT 2500 TSRA BKN010 FEW025CB OVC090 27/26 Q1003 TEMPO TSRA
Conditions at: VGHS (DHAKA , BD) observed 0530 UTC 23 June 2018
Temperature: 27.0°C (81°F)
Dewpoint: 26.0°C (79°F) [RH = 94%]
Pressure (altimeter): 29.62 inches Hg (1003.0 mb)
Winds: from the E (90 degrees) at 5 MPH (4 knots; 2.1 m/s)
Visibility: 1.55 miles (2.49 km)
Ceiling: 1000 feet AGL
Clouds: broken clouds at 1000 feet AGL
few clouds at 2500 feet AGL
overcast cloud deck at 9000 feet AGL
Weather: TSRA  (rain associated with thunderstorm(s))

METAR text: VGHS 230500Z 14007KT 1000 TSRA BKN008 FEW025CB OVC080 26/25 Q1003 TEMPO TSRA
Conditions at: VGHS (DHAKA , BD) observed 0500 UTC 23 June 2018
Temperature: 26.0°C (79°F)
Dewpoint: 25.0°C (77°F) [RH = 94%]
Pressure (altimeter): 29.62 inches Hg (1003.0 mb)
Winds: from the SE (140 degrees) at 8 MPH (7 knots; 3.6 m/s)
Visibility: 0.62 miles (1.00 km)
Ceiling: 800 feet AGL
Clouds: broken clouds at 800 feet AGL
few clouds at 2500 feet AGL
overcast cloud deck at 8000 feet AGL
Weather: TSRA  (rain associated with thunderstorm(s))

METAR text: VGHS 230430Z 13009KT 1200 RA BKN008 FEW025CB OVC090 27/26 Q1004 TEMPO TSRA
Conditions at: VGHS (DHAKA , BD) observed 0430 UTC 23 June 2018
Temperature: 27.0°C (81°F)
Dewpoint: 26.0°C (79°F) [RH = 94%]
Pressure (altimeter): 29.65 inches Hg (1004.0 mb)
Winds: from the SE (130 degrees) at 10 MPH (9 knots; 4.7 m/s)
Visibility: 0.75 miles (1.21 km)
Ceiling: 800 feet AGL
Clouds: broken clouds at 800 feet AGL
few clouds at 2500 feet AGL
overcast cloud deck at 9000 feet AGL
Weather: RA  (rain)

METAR text: VGHS 230400Z 34005KT 4000 HZ BKN010 FEW025CB BKN100 29/26 Q1003 TEMPO TSRA
Conditions at: VGHS (DHAKA , BD) observed 0400 UTC 23 June 2018
Temperature: 29.0°C (84°F)
Dewpoint: 26.0°C (79°F) [RH = 84%]
Pressure (altimeter): 29.62 inches Hg (1003.0 mb)
Winds: from the NNW (340 degrees) at 6 MPH (5 knots; 2.6 m/s)
Visibility: 2.49 miles (4.01 km)
Ceiling: 1000 feet AGL
Clouds: broken clouds at 1000 feet AGL
few clouds at 2500 feet AGL
broken clouds at 10000 feet AGL
Weather: HZ  (haze)

METAR text: VGHS 230330Z 32003KT 4000 HZ BKN010 BKN100 29/26 Q1004 TEMPO RA
Conditions at: VGHS (DHAKA , BD) observed 0330 UTC 23 June 2018
Temperature: 29.0°C (84°F)
Dewpoint: 26.0°C (79°F) [RH = 84%]
Pressure (altimeter): 29.65 inches Hg (1004.0 mb)
Winds: from the NW (320 degrees) at 3 MPH (3 knots; 1.6 m/s)
Visibility: 2.49 miles (4.01 km)
Ceiling: 1000 feet AGL
Clouds: broken clouds at 1000 feet AGL
broken clouds at 10000 feet AGL
Weather: HZ  (haze)

METAR text: VGHS 230300Z 12009KT 4000 HZ BKN010 FEW025CB BKN100 29/26 Q1004 TEMPO TSRA
Conditions at: VGHS (DHAKA , BD) observed 0300 UTC 23 June 2018
Temperature: 29.0°C (84°F)
Dewpoint: 26.0°C (79°F) [RH = 84%]
Pressure (altimeter): 29.65 inches Hg (1004.0 mb)
Winds: from the ESE (120 degrees) at 10 MPH (9 knots; 4.7 m/s)
Visibility: 2.49 miles (4.01 km)
Ceiling: 1000 feet AGL
Clouds: broken clouds at 1000 feet AGL
few clouds at 2500 feet AGL
broken clouds at 10000 feet AGL
Weather: HZ  (haze)

METAR text: VGHS 230230Z 14009KT 4000 HZ BKN010 FEW025CB BKN100 29/26 Q1003 TEMPO TSRA
Conditions at: VGHS (DHAKA , BD) observed 0230 UTC 23 June 2018
Temperature: 29.0°C (84°F)
Dewpoint: 26.0°C (79°F) [RH = 84%]
Pressure (altimeter): 29.62 inches Hg (1003.0 mb)
Winds: from the SE (140 degrees) at 10 MPH (9 knots; 4.7 m/s)
Visibility: 2.49 miles (4.01 km)
Ceiling: 1000 feet AGL
Clouds: broken clouds at 1000 feet AGL
few clouds at 2500 feet AGL
broken clouds at 10000 feet AGL
Weather: HZ  (haze)

METAR text: VGHS 230200Z 14005KT 4000 HZ BKN010 FEW025CB BKN100 30/26 Q1003 TEMPO TSRA
Conditions at: VGHS (DHAKA , BD) observed 0200 UTC 23 June 2018
Temperature: 30.0°C (86°F)
Dewpoint: 26.0°C (79°F) [RH = 79%]
Pressure (altimeter): 29.62 inches Hg (1003.0 mb)
Winds: from the SE (140 degrees) at 6 MPH (5 knots; 2.6 m/s)
Visibility: 2.49 miles (4.01 km)
Ceiling: 1000 feet AGL
Clouds: broken clouds at 1000 feet AGL
few clouds at 2500 feet AGL
broken clouds at 10000 feet AGL
Weather: HZ  (haze)

METAR text: VGHS 230130Z 15004KT 4000 HZ BKN010 BKN100 29/26 Q1003 TEMPO RA
Conditions at: VGHS (DHAKA , BD) observed 0130 UTC 23 June 2018
Temperature: 29.0°C (84°F)
Dewpoint: 26.0°C (79°F) [RH = 84%]
Pressure (altimeter): 29.62 inches Hg (1003.0 mb)
Winds: from the SSE (150 degrees) at 5 MPH (4 knots; 2.1 m/s)
Visibility: 2.49 miles (4.01 km)
Ceiling: 1000 feet AGL
Clouds: broken clouds at 1000 feet AGL
broken clouds at 10000 feet AGL
Weather: HZ  (haze)

METAR text: VGHS 230100Z 16007KT 4000 HZ BKN010 BKN100 29/26 Q1003 TEMPO RA
Conditions at: VGHS (DHAKA , BD) observed 0100 UTC 23 June 2018
Temperature: 29.0°C (84°F)
Dewpoint: 26.0°C (79°F) [RH = 84%]
Pressure (altimeter): 29.62 inches Hg (1003.0 mb)
Winds: from the SSE (160 degrees) at 8 MPH (7 knots; 3.6 m/s)
Visibility: 2.49 miles (4.01 km)
Ceiling: 1000 feet AGL
Clouds: broken clouds at 1000 feet AGL
broken clouds at 10000 feet AGL
Weather: HZ  (haze)

METAR text: VGHS 230030Z 14006KT 4000 HZ BKN010 FEW025CB BKN100 28/25 Q1003 TEMPO TSRA
Conditions at: VGHS (DHAKA , BD) observed 0030 UTC 23 June 2018
Temperature: 28.0°C (82°F)
Dewpoint: 25.0°C (77°F) [RH = 84%]
Pressure (altimeter): 29.62 inches Hg (1003.0 mb)
Winds: from the SE (140 degrees) at 7 MPH (6 knots; 3.1 m/s)
Visibility: 2.49 miles (4.01 km)
Ceiling: 1000 feet AGL
Clouds: broken clouds at 1000 feet AGL
few clouds at 2500 feet AGL
broken clouds at 10000 feet AGL
Weather: HZ  (haze)

METAR text: VGHS 230000Z 14007KT 4000 HZ BKN010 FEW025CB BKN100 28/25 Q1002 TEMPO TSRA
Conditions at: VGHS (DHAKA , BD) observed 0000 UTC 23 June 2018
Temperature: 28.0°C (82°F)
Dewpoint: 25.0°C (77°F) [RH = 84%]
Pressure (altimeter): 29.59 inches Hg (1002.0 mb)
Winds: from the SE (140 degrees) at 8 MPH (7 knots; 3.6 m/s)
Visibility: 2.49 miles (4.01 km)
Ceiling: 1000 feet AGL
Clouds: broken clouds at 1000 feet AGL
few clouds at 2500 feet AGL
broken clouds at 10000 feet AGL
Weather: HZ  (haze)

METAR text: VGHS 222330Z 14007KT 4000 HZ BKN010 FEW025CB BKN100 28/25 Q1002 TEMPO TSRA
Conditions at: VGHS (DHAKA , BD) observed 2330 UTC 22 June 2018
Temperature: 28.0°C (82°F)
Dewpoint: 25.0°C (77°F) [RH = 84%]
Pressure (altimeter): 29.59 inches Hg (1002.0 mb)
Winds: from the SE (140 degrees) at 8 MPH (7 knots; 3.6 m/s)
Visibility: 2.49 miles (4.01 km)
Ceiling: 1000 feet AGL
Clouds: broken clouds at 1000 feet AGL
few clouds at 2500 feet AGL
broken clouds at 10000 feet AGL
Weather: HZ  (haze)

METAR text: VGHS 222300Z 15006KT 4000 HZ SCT012 FEW025CB BKN100 28/25 Q1002 TEMPO TSRA
Conditions at: VGHS (DHAKA , BD) observed 2300 UTC 22 June 2018
Temperature: 28.0°C (82°F)
Dewpoint: 25.0°C (77°F) [RH = 84%]
Pressure (altimeter): 29.59 inches Hg (1002.0 mb)
Winds: from the SSE (150 degrees) at 7 MPH (6 knots; 3.1 m/s)
Visibility: 2.49 miles (4.01 km)
Ceiling: 10000 feet AGL
Clouds: scattered clouds at 1200 feet AGL
few clouds at 2500 feet AGL
broken clouds at 10000 feet AGL
Weather: HZ  (haze)

METAR text: VGHS 222230Z 16004KT 4000 HZ SCT015 BKN100 28/25 Q1001 NOSIG
Conditions at: VGHS (DHAKA , BD) observed 2230 UTC 22 June 2018
Temperature: 28.0°C (82°F)
Dewpoint: 25.0°C (77°F) [RH = 84%]
Pressure (altimeter): 29.56 inches Hg (1001.0 mb)
Winds: from the SSE (160 degrees) at 5 MPH (4 knots; 2.1 m/s)
Visibility: 2.49 miles (4.01 km)
Ceiling: 10000 feet AGL
Clouds: scattered clouds at 1500 feet AGL
broken clouds at 10000 feet AGL
Weather: HZ  (haze)

METAR text: VGHS 222200Z 17005KT 4000 HZ SCT015 BKN100 29/25 Q1001 NOSIG
Conditions at: VGHS (DHAKA , BD) observed 2200 UTC 22 June 2018
Temperature: 29.0°C (84°F)
Dewpoint: 25.0°C (77°F) [RH = 79%]
Pressure (altimeter): 29.56 inches Hg (1001.0 mb)
Winds: from the S (170 degrees) at 6 MPH (5 knots; 2.6 m/s)
Visibility: 2.49 miles (4.01 km)
Ceiling: 10000 feet AGL
Clouds: scattered clouds at 1500 feet AGL
broken clouds at 10000 feet AGL
Weather: HZ  (haze)

METAR text: VGHS 222130Z 18006KT 4000 HZ SCT015 BKN100 29/25 Q1001 NOSIG
Conditions at: VGHS (DHAKA , BD) observed 2130 UTC 22 June 2018
Temperature: 29.0°C (84°F)
Dewpoint: 25.0°C (77°F) [RH = 79%]
Pressure (altimeter): 29.56 inches Hg (1001.0 mb)
Winds: from the S (180 degrees) at 7 MPH (6 knots; 3.1 m/s)
Visibility: 2.49 miles (4.01 km)
Ceiling: 10000 feet AGL
Clouds: scattered clouds at 1500 feet AGL
broken clouds at 10000 feet AGL
Weather: HZ  (haze)

METAR text: VGHS 222100Z 17008KT 4000 HZ SCT015 BKN100 29/25 Q1001 NOSIG
Conditions at: VGHS (DHAKA , BD) observed 2100 UTC 22 June 2018
Temperature: 29.0°C (84°F)
Dewpoint: 25.0°C (77°F) [RH = 79%]
Pressure (altimeter): 29.56 inches Hg (1001.0 mb)
Winds: from the S (170 degrees) at 9 MPH (8 knots; 4.2 m/s)
Visibility: 2.49 miles (4.01 km)
Ceiling: 10000 feet AGL
Clouds: scattered clouds at 1500 feet AGL
broken clouds at 10000 feet AGL
Weather: HZ  (haze)

METAR text: VGHS 222030Z 18006KT 4000 HZ SCT015 BKN100 29/25 Q1002 NOSIG
Conditions at: VGHS (DHAKA , BD) observed 2030 UTC 22 June 2018
Temperature: 29.0°C (84°F)
Dewpoint: 25.0°C (77°F) [RH = 79%]
Pressure (altimeter): 29.59 inches Hg (1002.0 mb)
Winds: from the S (180 degrees) at 7 MPH (6 knots; 3.1 m/s)
Visibility: 2.49 miles (4.01 km)
Ceiling: 10000 feet AGL
Clouds: scattered clouds at 1500 feet AGL
broken clouds at 10000 feet AGL
Weather: HZ  (haze)

METAR text: VGHS 222000Z 19006KT 4000 HZ FEW015 SCT100 29/25 Q1002 NOSIG
Conditions at: VGHS (DHAKA , BD) observed 2000 UTC 22 June 2018
Temperature: 29.0°C (84°F)
Dewpoint: 25.0°C (77°F) [RH = 79%]
Pressure (altimeter): 29.59 inches Hg (1002.0 mb)
Winds: from the S (190 degrees) at 7 MPH (6 knots; 3.1 m/s)
Visibility: 2.49 miles (4.01 km)
Ceiling: at least 12,000 feet AGL
Clouds: few clouds at 1500 feet AGL
scattered clouds at 10000 feet AGL
Weather: HZ  (haze)

METAR text: VGHS 221930Z 18008KT 4000 HZ FEW015 SCT100 29/25 Q1002 NOSIG
Conditions at: VGHS (DHAKA , BD) observed 1930 UTC 22 June 2018
Temperature: 29.0°C (84°F)
Dewpoint: 25.0°C (77°F) [RH = 79%]
Pressure (altimeter): 29.59 inches Hg (1002.0 mb)
Winds: from the S (180 degrees) at 9 MPH (8 knots; 4.2 m/s)
Visibility: 2.49 miles (4.01 km)
Ceiling: at least 12,000 feet AGL
Clouds: few clouds at 1500 feet AGL
scattered clouds at 10000 feet AGL
Weather: HZ  (haze)

METAR text: VGHS 221900Z 17007KT 4000 HZ FEW015 SCT100 29/26 Q1002 NOSIG
Conditions at: VGHS (DHAKA , BD) observed 1900 UTC 22 June 2018
Temperature: 29.0°C (84°F)
Dewpoint: 26.0°C (79°F) [RH = 84%]
Pressure (altimeter): 29.59 inches Hg (1002.0 mb)
Winds: from the S (170 degrees) at 8 MPH (7 knots; 3.6 m/s)
Visibility: 2.49 miles (4.01 km)
Ceiling: at least 12,000 feet AGL
Clouds: few clouds at 1500 feet AGL
scattered clouds at 10000 feet AGL
Weather: HZ  (haze)

METAR text: VGHS 221830Z 17009KT 4000 HZ FEW015 SCT100 30/26 Q1003 NOSIG
Conditions at: VGHS (DHAKA , BD) observed 1830 UTC 22 June 2018
Temperature: 30.0°C (86°F)
Dewpoint: 26.0°C (79°F) [RH = 79%]
Pressure (altimeter): 29.62 inches Hg (1003.0 mb)
Winds: from the S (170 degrees) at 10 MPH (9 knots; 4.7 m/s)
Visibility: 2.49 miles (4.01 km)
Ceiling: at least 12,000 feet AGL
Clouds: few clouds at 1500 feet AGL
scattered clouds at 10000 feet AGL
Weather: HZ  (haze)

METAR text: VGHS 221800Z 18006KT 4000 HZ FEW015 SCT100 30/26 Q1003 NOSIG
Conditions at: VGHS (DHAKA , BD) observed 1800 UTC 22 June 2018
Temperature: 30.0°C (86°F)
Dewpoint: 26.0°C (79°F) [RH = 79%]
Pressure (altimeter): 29.62 inches Hg (1003.0 mb)
Winds: from the S (180 degrees) at 7 MPH (6 knots; 3.1 m/s)
Visibility: 2.49 miles (4.01 km)
Ceiling: at least 12,000 feet AGL
Clouds: few clouds at 1500 feet AGL
scattered clouds at 10000 feet AGL
Weather: HZ  (haze)

METAR text: VGHS 221730Z 19007KT 4000 HZ SCT012 BKN100 30/26 Q1003 NOSIG
Conditions at: VGHS (DHAKA , BD) observed 1730 UTC 22 June 2018
Temperature: 30.0°C (86°F)
Dewpoint: 26.0°C (79°F) [RH = 79%]
Pressure (altimeter): 29.62 inches Hg (1003.0 mb)
Winds: from the S (190 degrees) at 8 MPH (7 knots; 3.6 m/s)
Visibility: 2.49 miles (4.01 km)
Ceiling: 10000 feet AGL
Clouds: scattered clouds at 1200 feet AGL
broken clouds at 10000 feet AGL
Weather: HZ  (haze)

METAR text: VGHS 221700Z 18006KT 4000 HZ SCT012 BKN100 30/26 Q1003 NOSIG
Conditions at: VGHS (DHAKA , BD) observed 1700 UTC 22 June 2018
Temperature: 30.0°C (86°F)
Dewpoint: 26.0°C (79°F) [RH = 79%]
Pressure (altimeter): 29.62 inches Hg (1003.0 mb)
Winds: from the S (180 degrees) at 7 MPH (6 knots; 3.1 m/s)
Visibility: 2.49 miles (4.01 km)
Ceiling: 10000 feet AGL
Clouds: scattered clouds at 1200 feet AGL
broken clouds at 10000 feet AGL
Weather: HZ  (haze)

METAR text: VGHS 221630Z 17008KT 4000 HZ SCT012 BKN100 30/26 Q1003 NOSIG
Conditions at: VGHS (DHAKA , BD) observed 1630 UTC 22 June 2018
Temperature: 30.0°C (86°F)
Dewpoint: 26.0°C (79°F) [RH = 79%]
Pressure (altimeter): 29.62 inches Hg (1003.0 mb)
Winds: from the S (170 degrees) at 9 MPH (8 knots; 4.2 m/s)
Visibility: 2.49 miles (4.01 km)
Ceiling: 10000 feet AGL
Clouds: scattered clouds at 1200 feet AGL
broken clouds at 10000 feet AGL
Weather: HZ  (haze)

METAR text: VGHS 221600Z 16008KT 4000 HZ SCT012 BKN100 30/25 Q1003 NOSIG
Conditions at: VGHS (DHAKA , BD) observed 1600 UTC 22 June 2018
Temperature: 30.0°C (86°F)
Dewpoint: 25.0°C (77°F) [RH = 75%]
Pressure (altimeter): 29.62 inches Hg (1003.0 mb)
Winds: from the SSE (160 degrees) at 9 MPH (8 knots; 4.2 m/s)
Visibility: 2.49 miles (4.01 km)
Ceiling: 10000 feet AGL
Clouds: scattered clouds at 1200 feet AGL
broken clouds at 10000 feet AGL
Weather: HZ  (haze)

METAR text: VGHS 221530Z 18011KT 4000 HZ SCT012 BKN100 30/25 Q1003 NOSIG
Conditions at: VGHS (DHAKA , BD) observed 1530 UTC 22 June 2018
Temperature: 30.0°C (86°F)
Dewpoint: 25.0°C (77°F) [RH = 75%]
Pressure (altimeter): 29.62 inches Hg (1003.0 mb)
Winds: from the S (180 degrees) at 13 MPH (11 knots; 5.7 m/s)
Visibility: 2.49 miles (4.01 km)
Ceiling: 10000 feet AGL
Clouds: scattered clouds at 1200 feet AGL
broken clouds at 10000 feet AGL
Weather: HZ  (haze)

METAR text: VGHS 221500Z 18012KT 4000 HZ SCT012 BKN100 30/25 Q1002 NOSIG
Conditions at: VGHS (DHAKA , BD) observed 1500 UTC 22 June 2018
Temperature: 30.0°C (86°F)
Dewpoint: 25.0°C (77°F) [RH = 75%]
Pressure (altimeter): 29.59 inches Hg (1002.0 mb)
Winds: from the S (180 degrees) at 14 MPH (12 knots; 6.2 m/s)
Visibility: 2.49 miles (4.01 km)
Ceiling: 10000 feet AGL
Clouds: scattered clouds at 1200 feet AGL
broken clouds at 10000 feet AGL
Weather: HZ  (haze)

METAR text: VGHS 221430Z 17009KT 4000 HZ SCT012 BKN100 31/25 Q1002 NOSIG
Conditions at: VGHS (DHAKA , BD) observed 1430 UTC 22 June 2018
Temperature: 31.0°C (88°F)
Dewpoint: 25.0°C (77°F) [RH = 71%]
Pressure (altimeter): 29.59 inches Hg (1002.0 mb)
Winds: from the S (170 degrees) at 10 MPH (9 knots; 4.7 m/s)
Visibility: 2.49 miles (4.01 km)
Ceiling: 10000 feet AGL
Clouds: scattered clouds at 1200 feet AGL
broken clouds at 10000 feet AGL
Weather: HZ  (haze)

METAR text: VGHS 221400Z 16009KT 4000 HZ SCT012 BKN100 31/25 Q1002 NOSIG
Conditions at: VGHS (DHAKA , BD) observed 1400 UTC 22 June 2018
Temperature: 31.0°C (88°F)
Dewpoint: 25.0°C (77°F) [RH = 71%]
Pressure (altimeter): 29.59 inches Hg (1002.0 mb)
Winds: from the SSE (160 degrees) at 10 MPH (9 knots; 4.7 m/s)
Visibility: 2.49 miles (4.01 km)
Ceiling: 10000 feet AGL
Clouds: scattered clouds at 1200 feet AGL
broken clouds at 10000 feet AGL
Weather: HZ  (haze)

METAR text: VGHS 221330Z 15010KT 4000 HZ SCT012 BKN100 31/25 Q1001 NOSIG
Conditions at: VGHS (DHAKA , BD) observed 1330 UTC 22 June 2018
Temperature: 31.0°C (88°F)
Dewpoint: 25.0°C (77°F) [RH = 71%]
Pressure (altimeter): 29.56 inches Hg (1001.0 mb)
Winds: from the SSE (150 degrees) at 12 MPH (10 knots; 5.2 m/s)
Visibility: 2.49 miles (4.01 km)
Ceiling: 10000 feet AGL
Clouds: scattered clouds at 1200 feet AGL
broken clouds at 10000 feet AGL
Weather: HZ  (haze)